Time;durP1;ratioP1;P1;durP2;ratioP2;P2;SDS_P1;SDS_P2;PMS_P1;PMS_P2;Temp;Humidity;BMP_temperature;BMP_pressure;BME280_temperature;BME280_humidity;BME280_pressure;Samples;Min_cycle;Max_cycle;Signal;HPM_P1;HPM_P2
2020/12/31 00:01:00;;;;;;;12.60;11.40;;;;;;;;;;5059732;28;20522;-74
2020/12/31 00:03:26;;;;;;;12.48;11.27;;;;;;;;;;5059638;28;20380;-74
2020/12/31 00:05:52;;;;;;;12.32;11.23;;;;;;;;;;5058556;28;20468;-75
2020/12/31 00:08:18;;;;;;;13.30;11.90;;;;;;;;;;5056728;28;20395;-74
2020/12/31 00:10:43;;;;;;;13.38;12.07;;;;;;;;;;5057272;28;20393;-74
2020/12/31 00:13:09;;;;;;;14.10;12.60;;;2.20;99.90;;;;;;5063562;28;20958;-74
2020/12/31 00:15:35;;;;;;;14.60;13.10;;;;;;;;;;5056218;28;20420;-74
2020/12/31 00:18:00;;;;;;;13.65;12.25;;;2.60;99.90;;;;;;5062711;28;20408;-74
2020/12/31 00:20:26;;;;;;;13.40;12.13;;;;;;;;;;5056315;28;20413;-74
2020/12/31 00:22:53;;;;;;;13.57;12.27;;;;;;;;;;5061667;28;20894;-74
2020/12/31 00:25:19;;;;;;;12.63;11.45;;;3.10;99.90;;;;;;5061049;28;20375;-74
2020/12/31 00:27:45;;;;;;;12.35;11.13;;;;;;;;;;5059391;28;20380;-74
2020/12/31 00:30:16;;;;;;;12.20;11.05;;;;;;;;;;5058802;28;20391;-74
2020/12/31 00:32:44;;;;;;;12.05;10.95;;;;;;;;;;5059140;28;20380;-74
2020/12/31 00:35:09;;;;;;;11.45;10.35;;;3.30;99.90;;;;;;5046015;28;20389;-74
2020/12/31 00:37:35;;;;;;;12.20;11.10;;;;;;;;;;5054110;28;20383;-74
2020/12/31 00:40:03;;;;;;;12.20;11.05;;;;;;;;;;5058770;28;20403;-74
2020/12/31 00:42:29;;;;;;;12.50;11.30;;;;;;;;;;5058982;28;20817;-74
2020/12/31 00:44:55;;;;;;;12.68;11.43;;;;;;;;;;5058127;28;20461;-74
2020/12/31 00:47:21;;;;;;;12.55;11.43;;;;;;;;;;5059430;28;21006;-74
2020/12/31 00:49:47;;;;;;;12.43;11.23;;;;;;;;;;5057151;28;20381;-74
2020/12/31 00:52:13;;;;;;;12.30;11.10;;;;;;;;;;5061993;28;20977;-74
2020/12/31 00:54:39;;;;;;;13.20;11.90;;;3.50;99.90;;;;;;5055759;28;20385;-74
2020/12/31 00:57:05;;;;;;;13.38;11.98;;;;;;;;;;5061697;28;20392;-74
2020/12/31 00:59:31;;;;;;;13.50;12.15;;;;;;;;;;5062707;28;20404;-73
2020/12/31 01:01:56;;;;;;;13.40;12.10;;;2.30;99.90;;;;;;5057120;28;20380;-74
2020/12/31 01:04:22;;;;;;;12.90;11.70;;;;;;;;;;5063111;28;20475;-74
2020/12/31 01:06:48;;;;;;;12.80;11.50;;;2.30;99.90;;;;;;5058519;28;20452;-73
2020/12/31 01:09:14;;;;;;;13.77;12.48;;;;;;;;;;5061151;28;20884;-74
2020/12/31 01:11:40;;;;;;;12.70;11.45;;;2.30;99.90;;;;;;5062301;28;20429;-74
2020/12/31 01:14:07;;;;;;;13.45;12.15;;;2.30;99.90;;;;;;5051097;28;20852;-74
2020/12/31 01:16:33;;;;;;;13.18;11.88;;;;;;;;;;5061828;28;20395;-74
2020/12/31 01:18:59;;;;;;;13.32;12.10;;;;;;;;;;5061674;28;20817;-74
2020/12/31 01:21:26;;;;;;;13.45;12.05;;;;;;;;;;5061001;28;20520;-74
2020/12/31 01:23:52;;;;;;;13.80;12.50;;;;;;;;;;5060335;28;20488;-74
2020/12/31 01:26:34;;;;;;;13.13;11.93;;;;;;;;;;5064745;28;20381;-74
2020/12/31 01:29:00;;;;;;;14.75;13.30;;;;;;;;;;5061654;28;20377;-74
2020/12/31 01:31:26;;;;;;;15.73;14.13;;;;;;;;;;5062326;28;20409;-74
2020/12/31 01:33:52;;;;;;;16.02;14.55;;;;;;;;;;5060290;28;20400;-75
2020/12/31 01:36:18;;;;;;;16.05;14.55;;;;;;;;;;5061570;28;20856;-74
2020/12/31 01:38:45;;;;;;;16.83;15.18;;;2.00;99.90;;;;;;5063027;28;20379;-74
2020/12/31 01:41:12;;;;;;;16.83;15.23;;;1.70;99.90;;;;;;5058732;28;20413;-74
2020/12/31 01:43:38;;;;;;;17.63;15.93;;;;;;;;;;5064535;28;20371;-74
2020/12/31 01:46:04;;;;;;;16.23;14.70;;;;;;;;;;5058877;28;20439;-74
2020/12/31 01:48:30;;;;;;;17.10;15.38;;;;;;;;;;5062127;28;20463;-74
2020/12/31 01:50:57;;;;;;;16.80;15.25;;;;;;;;;;5061186;28;20420;-74
2020/12/31 01:53:23;;;;;;;17.30;15.60;;;;;;;;;;5061765;28;20442;-74
2020/12/31 01:55:49;;;;;;;16.70;15.00;;;;;;;;;;5060184;28;20458;-74
2020/12/31 01:58:15;;;;;;;17.55;15.85;;;;;;;;;;5060525;28;20389;-74
2020/12/31 02:00:41;;;;;;;17.23;15.52;;;;;;;;;;5058852;28;20462;-74
2020/12/31 02:03:07;;;;;;;18.00;16.30;;;;;;;;;;5061602;28;20368;-74
2020/12/31 02:05:33;;;;;;;18.13;16.35;;;;;;;;;;5062154;28;20435;-74
2020/12/31 02:07:59;;;;;;;18.30;16.50;;;;;;;;;;5058481;28;20462;-74
2020/12/31 02:10:25;;;;;;;17.02;15.43;;;;;;;;;;5061739;28;20884;-74
2020/12/31 02:12:52;;;;;;;17.53;15.83;;;;;;;;;;5066220;28;20391;-74
2020/12/31 02:15:18;;;;;;;17.80;16.17;;;1.80;99.90;;;;;;5057043;28;20486;-75
2020/12/31 02:17:44;;;;;;;18.48;16.67;;;;;;;;;;5064964;28;20449;-74
2020/12/31 02:20:13;;;;;;;17.77;16.00;;;1.90;99.90;;;;;;5058229;28;20401;-74
2020/12/31 02:22:39;;;;;;;18.73;16.90;;;;;;;;;;5063703;28;20386;-74
2020/12/31 02:25:05;;;;;;;18.92;17.10;;;;;;;;;;5057760;28;20381;-74
2020/12/31 02:27:31;;;;;;;18.13;16.33;;;1.90;99.90;;;;;;5060436;28;20862;-74
2020/12/31 02:29:57;;;;;;;18.50;16.65;;;;;;;;;;5060179;28;20396;-74
2020/12/31 02:32:22;;;;;;;17.60;16.00;;;;;;;;;;5061144;28;20394;-74
2020/12/31 02:34:48;;;;;;;19.33;17.52;;;;;;;;;;5058331;28;20468;-74
2020/12/31 02:37:14;;;;;;;18.17;16.50;;;;;;;;;;5057633;28;20433;-74
2020/12/31 02:39:40;;;;;;;17.33;15.73;;;;;;;;;;5059982;28;20848;-74
2020/12/31 02:42:06;;;;;;;17.77;16.17;;;;;;;;;;5060829;28;20380;-74
2020/12/31 02:44:32;;;;;;;17.45;15.85;;;;;;;;;;5060325;28;20447;-74
2020/12/31 02:46:58;;;;;;;17.67;16.08;;;;;;;;;;5059867;28;20377;-74
2020/12/31 02:49:24;;;;;;;17.10;15.43;;;;;;;;;;5060003;28;20374;-74
2020/12/31 02:51:50;;;;;;;17.67;15.98;;;;;;;;;;5064422;28;20380;-74
2020/12/31 02:54:16;;;;;;;17.07;15.47;;;;;;;;;;5058128;28;20748;-75
2020/12/31 02:56:42;;;;;;;17.65;15.88;;;2.10;99.90;;;;;;5049334;28;20378;-74
2020/12/31 02:59:07;;;;;;;17.47;15.83;;;1.90;99.90;;;;;;5049110;28;20442;-74
2020/12/31 03:01:33;;;;;;;16.63;15.13;;;;;;;;;;5049111;28;20915;-74
2020/12/31 03:03:59;;;;;;;17.10;15.40;;;;;;;;;;5048872;28;20743;-74
2020/12/31 03:06:25;;;;;;;16.77;15.18;;;;;;;;;;5049031;28;20748;-74
2020/12/31 03:08:51;;;;;;;16.40;14.90;;;;;;;;;;5048954;28;20470;-74
2020/12/31 03:11:24;;;;;;;16.80;15.20;;;2.30;99.90;;;;;;5049133;28;20895;-74
2020/12/31 03:13:50;;;;;;;16.55;15.02;;;;;;;;;;5048539;28;20381;-74
2020/12/31 03:16:17;;;;;;;17.13;15.53;;;;;;;;;;5048841;28;20385;-74
2020/12/31 03:18:42;;;;;;;16.75;15.25;;;;;;;;;;5048791;28;20397;-73
2020/12/31 03:21:11;;;;;;;16.55;15.02;;;2.30;99.90;;;;;;5048797;28;20494;-73
2020/12/31 03:23:37;;;;;;;17.15;15.45;;;;;;;;;;5048579;28;20381;-73
2020/12/31 03:26:04;;;;;;;17.30;15.70;;;;;;;;;;5048479;28;20370;-73
2020/12/31 03:28:29;;;;;;;16.08;14.48;;;2.10;99.90;;;;;;5048441;28;20464;-73
2020/12/31 03:30:55;;;;;;;17.52;15.93;;;;;;;;;;5048555;28;20436;-77
2020/12/31 03:33:21;;;;;;;18.38;16.63;;;;;;;;;;5048396;28;20396;-77
2020/12/31 03:35:48;;;;;;;18.13;16.33;;;;;;;;;;5048716;28;20397;-77
2020/12/31 03:38:16;;;;;;;17.77;16.08;;;1.80;99.90;;;;;;5048424;28;20421;-77
2020/12/31 03:40:42;;;;;;;17.83;16.13;;;;;;;;;;5048393;28;20484;-77
2020/12/31 03:43:08;;;;;;;18.25;16.48;;;;;;;;;;5066219;28;20388;-77
2020/12/31 03:45:35;;;;;;;19.05;17.25;;;1.80;99.90;;;;;;5068506;28;20380;-76
2020/12/31 03:48:01;;;;;;;18.58;16.80;;;1.80;99.90;;;;;;5068394;28;20387;-76
2020/12/31 03:50:27;;;;;;;19.08;17.27;;;;;;;;;;5068445;28;20398;-75
2020/12/31 03:52:53;;;;;;;19.25;17.35;;;;;;;;;;5068058;28;20388;-75
2020/12/31 03:55:19;;;;;;;19.48;17.67;;;;;;;;;;5068387;28;20394;-76
2020/12/31 03:57:45;;;;;;;19.27;17.50;;;;;;;;;;5068131;28;20380;-76
2020/12/31 04:00:11;;;;;;;18.98;17.10;;;1.70;99.90;;;;;;5068302;28;20431;-76
2020/12/31 04:02:37;;;;;;;19.92;18.02;;;;;;;;;;5068132;28;20792;-76
2020/12/31 04:05:04;;;;;;;19.60;17.73;;;;;;;;;;5068229;28;21014;-76
2020/12/31 04:07:29;;;;;;;19.25;17.40;;;2.20;99.90;;;;;;5068120;28;20901;-76
2020/12/31 04:09:55;;;;;;;20.87;18.83;;;1.70;99.90;;;;;;5068176;28;20387;-75
2020/12/31 04:12:21;;;;;;;19.87;17.97;;;;;;;;;;5068000;28;20383;-76
2020/12/31 04:14:47;;;;;;;21.00;18.90;;;;;;;;;;5068318;28;20387;-75
2020/12/31 04:17:12;;;;;;;21.13;19.13;;;1.90;99.90;;;;;;5068167;28;20391;-75
2020/12/31 04:19:42;;;;;;;20.33;18.43;;;;;;;;;;5068022;28;20395;-76
2020/12/31 04:22:08;;;;;;;20.10;18.20;;;;;;;;;;5067758;28;20380;-76
2020/12/31 04:24:35;;;;;;;19.85;17.95;;;;;;;;;;5068011;28;20892;-76
2020/12/31 04:27:01;;;;;;;20.45;18.52;;;;;;;;;;5068098;28;20384;-75
2020/12/31 04:29:27;;;;;;;21.30;19.20;;;;;;;;;;5068111;28;20380;-74
2020/12/31 04:31:53;;;;;;;22.08;19.88;;;;;;;;;;5067915;28;20498;-75
2020/12/31 04:34:19;;;;;;;21.73;19.63;;;2.10;99.90;;;;;;5067797;28;20376;-75
2020/12/31 04:36:45;;;;;;;22.05;19.85;;;;;;;;;;5048058;28;21093;-74
2020/12/31 04:39:11;;;;;;;22.23;20.10;;;;;;;;;;5050591;28;20389;-74
2020/12/31 04:41:36;;;;;;;22.23;20.02;;;1.70;99.90;;;;;;5058113;28;20386;-74
2020/12/31 04:44:03;;;;;;;22.08;19.95;;;;;;;;;;5071499;28;20379;-75
2020/12/31 04:46:33;;;;;;;22.47;20.23;;;;;;;;;;5071753;28;20462;-75
2020/12/31 04:49:08;;;;;;;22.50;20.20;;;1.50;99.90;;;;;;5071435;28;20364;-75
2020/12/31 04:51:35;;;;;;;21.93;19.83;;;1.60;99.90;;;;;;5071661;28;20447;-76
2020/12/31 04:54:06;;;;;;;23.20;20.88;;;1.60;99.90;;;;;;5055743;28;20393;-75
2020/12/31 04:56:34;;;;;;;22.08;19.90;;;;;;;;;;5051847;28;20420;-75
2020/12/31 04:59:00;;;;;;;22.55;20.35;;;;;;;;;;5051309;28;20379;-75
2020/12/31 05:01:26;;;;;;;22.10;20.00;;;;;;;;;;5051479;28;20435;-75
2020/12/31 05:03:52;;;;;;;22.52;20.27;;;;;;;;;;5051192;28;20929;-74
2020/12/31 05:06:18;;;;;;;21.80;19.70;;;;;;;;;;5051514;28;20446;-75
2020/12/31 05:08:44;;;;;;;21.98;19.85;;;;;;;;;;5051306;28;20466;-75
2020/12/31 05:11:11;;;;;;;22.33;20.13;;;;;;;;;;5051267;28;20377;-74
2020/12/31 05:13:50;;;;;;;22.58;20.38;;;;;;;;;;5051146;28;20407;-75
2020/12/31 05:16:29;;;;;;;21.23;19.23;;;;;;;;;;5051113;28;20452;-75
2020/12/31 05:18:57;;;;;;;22.25;20.05;;;;;;;;;;5051099;28;20379;-74
2020/12/31 05:21:23;;;;;;;22.10;20.00;;;;;;;;;;5051158;28;20471;-74
2020/12/31 05:23:49;;;;;;;23.13;20.83;;;;;;;;;;5050940;28;20446;-75
2020/12/31 05:26:28;;;;;;;23.40;21.10;;;;;;;;;;5050963;28;20431;-74
2020/12/31 05:28:54;;;;;;;26.23;23.42;;;;;;;;;;5050659;28;21180;-75
2020/12/31 05:31:21;;;;;;;26.45;23.85;;;;;;;;;;5050495;28;20473;-74
2020/12/31 05:33:47;;;;;;;27.08;24.27;;;;;;;;;;5050621;28;20446;-74
2020/12/31 05:36:19;;;;;;;25.45;22.88;;;1.20;99.90;;;;;;5050696;28;20847;-74
2020/12/31 05:38:46;;;;;;;24.13;21.67;;;;;;;;;;5050676;28;20385;-73
2020/12/31 05:41:12;;;;;;;26.03;23.43;;;0.40;99.90;;;;;;5053168;28;20503;-74
2020/12/31 05:43:40;;;;;;;45.47;40.97;;;1.10;99.90;;;;;;5070313;28;20376;-74
2020/12/31 05:46:07;;;;;;;34.47;30.85;;;0.00;99.90;;;;;;5070382;28;20395;-74
2020/12/31 05:48:32;;;;;;;32.45;29.05;;;-0.10;99.90;;;;;;5070184;28;20465;-74
2020/12/31 05:50:59;;;;;;;33.33;29.70;;;;;;;;;;5070202;28;20431;-73
2020/12/31 05:53:27;;;;;;;26.45;23.77;;;;;;;;;;5070066;28;20380;-74
2020/12/31 05:55:55;;;;;;;27.98;25.08;;;0.10;99.90;;;;;;5070328;28;20467;-74
2020/12/31 05:58:22;;;;;;;28.57;25.60;;;;;;;;;;5070392;28;20388;-73
2020/12/31 06:01:00;;;;;;;26.27;23.65;;;0.20;99.90;;;;;;5070220;28;20395;-73
2020/12/31 06:03:35;;;;;;;25.42;22.92;;;;;;;;;;5069982;28;20380;-73
2020/12/31 06:06:05;;;;;;;26.70;23.90;;;1.00;99.90;;;;;;5070209;28;20455;-73
2020/12/31 06:08:34;;;;;;;28.00;25.00;;;;;;;;;;5069871;28;20384;-73
2020/12/31 06:11:04;;;;;;;27.60;24.80;;;;;;;;;;5070144;28;20380;-73
2020/12/31 06:13:36;;;;;;;26.33;23.63;;;;;;;;;;5069790;28;20375;-73
2020/12/31 06:16:04;;;;;;;26.10;23.45;;;0.90;99.90;;;;;;5069790;28;20471;-73
2020/12/31 06:18:33;;;;;;;25.63;23.00;;;0.20;99.90;;;;;;5069815;28;20890;-73
2020/12/31 06:21:02;;;;;;;24.50;22.08;;;;;;;;;;5069706;28;20407;-72
2020/12/31 06:23:38;;;;;;;23.02;20.70;;;;;;;;;;5069555;28;20430;-73
2020/12/31 06:26:13;;;;;;;22.77;20.48;;;;;;;;;;5069850;28;20466;-73
2020/12/31 06:28:46;;;;;;;22.98;20.70;;;;;;;;;;5069486;28;20374;-74
2020/12/31 06:31:12;;;;;;;22.42;20.23;;;;;;;;;;5069499;28;20395;-73
2020/12/31 06:33:49;;;;;;;23.40;21.00;;;;;;;;;;5069469;28;20380;-73
2020/12/31 06:36:15;;;;;;;23.98;21.58;;;;;;;;;;5053749;28;20468;-74
2020/12/31 06:38:48;;;;;;;22.65;20.38;;;0.60;99.90;;;;;;5049482;28;20385;-73
2020/12/31 06:41:33;;;;;;;23.88;21.48;;;;;;;;;;5050898;28;20905;-73
2020/12/31 06:44:06;;;;;;;22.55;20.25;;;;;;;;;;5049034;28;20812;-73
2020/12/31 06:46:44;;;;;;;22.38;20.17;;;1.20;99.90;;;;;;5046939;28;20739;-74
2020/12/31 06:49:11;;;;;;;21.45;19.27;;;;;;;;;;5042831;28;20814;-74
2020/12/31 06:51:37;;;;;;;20.92;18.92;;;;;;;;;;5047995;28;20867;-74
2020/12/31 06:54:03;;;;;;;22.75;20.45;;;;;;;;;;5044454;28;20380;-74
2020/12/31 06:56:44;;;;;;;23.65;21.25;;;;;;;;;;5040962;28;20406;-74
2020/12/31 06:59:26;;;;;;;21.10;18.90;;;1.00;99.90;;;;;;5041913;28;20439;-74
2020/12/31 07:01:53;;;;;;;21.30;19.17;;;;;;;;;;5046685;28;20893;-74
2020/12/31 07:04:39;;;;;;;20.75;18.73;;;0.50;99.90;;;;;;5047897;28;20374;-74
2020/12/31 07:07:20;;;;;;;21.75;19.55;;;;;;;;;;5048935;28;20379;-74
2020/12/31 07:09:52;;;;;;;21.10;18.98;;;;;;;;;;5048208;28;20389;-74
2020/12/31 07:12:31;;;;;;;23.45;21.05;;;;;;;;;;5048497;28;20417;-74
2020/12/31 07:14:56;;;;;;;23.05;20.75;;;0.80;99.90;;;;;;5047104;28;20397;-74
2020/12/31 07:17:23;;;;;;;22.13;20.02;;;;;;;;;;5048524;28;20389;-74
2020/12/31 07:19:48;;;;;;;22.48;20.23;;;;;;;;;;5048934;28;20405;-75
2020/12/31 07:22:15;;;;;;;22.50;20.25;;;;;;;;;;5042854;28;20400;-74
2020/12/31 07:24:49;;;;;;;23.75;21.33;;;;;;;;;;5042118;28;20401;-74
2020/12/31 07:27:34;;;;;;;22.02;19.83;;;;;;;;;;5039876;28;20383;-75
2020/12/31 07:30:00;;;;;;;23.42;21.13;;;;;;;;;;5044845;28;20398;-74
2020/12/31 07:32:45;;;;;;;23.73;21.27;;;;;;;;;;5044698;28;20504;-74
2020/12/31 07:35:20;;;;;;;21.90;19.67;;;;;;;;;;5040446;28;20484;-74
2020/12/31 07:37:50;;;;;;;21.85;19.70;;;;;;;;;;5042353;28;20530;-74
2020/12/31 07:40:32;;;;;;;21.75;19.55;;;;;;;;;;5046028;28;20507;-76
2020/12/31 07:42:59;;;;;;;21.02;19.02;;;;;;;;;;5046071;28;20905;-74
2020/12/31 07:45:26;;;;;;;19.80;17.90;;;1.20;99.90;;;;;;5047889;28;20377;-74
2020/12/31 07:47:55;;;;;;;21.83;19.70;;;;;;;;;;5047853;28;20380;-73
2020/12/31 07:50:22;;;;;;;21.58;19.38;;;;;;;;;;5053662;28;20725;-74
2020/12/31 07:52:48;;;;;;;21.17;19.08;;;;;;;;;;5047632;28;20382;-74
2020/12/31 07:55:14;;;;;;;19.77;17.77;;;;;;;;;;5048049;28;20468;-74
2020/12/31 07:57:40;;;;;;;20.60;18.50;;;;;;;;;;5047856;28;20471;-74
2020/12/31 08:00:07;;;;;;;20.08;17.98;;;;;;;;;;5047544;28;20405;-74
2020/12/31 08:02:33;;;;;;;19.80;17.70;;;1.20;99.90;;;;;;5047684;28;20389;-74
2020/12/31 08:05:09;;;;;;;22.77;20.52;;;2.10;99.90;;;;;;5048032;28;20378;-74
2020/12/31 08:07:35;;;;;;;19.67;17.67;;;;;;;;;;5047887;28;20381;-74
2020/12/31 08:10:01;;;;;;;19.95;17.95;;;;;;;;;;5047932;28;20377;-74
2020/12/31 08:12:27;;;;;;;19.97;17.97;;;;;;;;;;5047742;28;20933;-74
2020/12/31 08:14:54;;;;;;;18.80;16.90;;;;;;;;;;5051849;28;20404;-74
2020/12/31 08:17:20;;;;;;;18.70;16.80;;;;;;;;;;5052127;28;20468;-74
2020/12/31 08:19:46;;;;;;;17.42;15.73;;;;;;;;;;5052009;28;20492;-75
2020/12/31 08:22:21;;;;;;;18.48;16.67;;;0.70;99.90;;;;;;5051895;28;20415;-74
2020/12/31 08:25:04;;;;;;;18.02;16.30;;;;;;;;;;5051874;28;20405;-74
2020/12/31 08:27:32;;;;;;;17.33;15.63;;;;;;;;;;5051791;28;20456;-74
2020/12/31 08:29:58;;;;;;;16.80;15.20;;;;;;;;;;5051755;28;20377;-74
2020/12/31 08:32:25;;;;;;;16.53;14.90;;;1.30;99.90;;;;;;5051510;28;20854;-74
2020/12/31 08:34:56;;;;;;;17.90;16.10;;;;;;;;;;5051760;28;20435;-75
2020/12/31 08:37:23;;;;;;;17.08;15.35;;;;;;;;;;5051581;28;20373;-74
2020/12/31 08:39:51;;;;;;;17.13;15.45;;;;;;;;;;5051392;28;20818;-74
2020/12/31 08:42:19;;;;;;;16.88;15.27;;;1.50;99.90;;;;;;5062126;28;20376;-74
2020/12/31 08:44:50;;;;;;;18.42;16.63;;;;;;;;;;5071480;28;20379;-74
2020/12/31 08:47:21;;;;;;;18.10;16.35;;;;;;;;;;5071555;28;20921;-74
2020/12/31 08:49:54;;;;;;;20.27;18.20;;;1.40;99.90;;;;;;5071353;28;20470;-74
2020/12/31 08:52:24;;;;;;;20.52;18.50;;;;;;;;;;5071027;28;20446;-74
2020/12/31 08:55:12;;;;;;;20.90;18.80;;;1.60;99.90;;;;;;5071343;28;20371;-74
2020/12/31 08:57:38;;;;;;;21.05;18.95;;;;;;;;;;5071020;28;20471;-74
2020/12/31 09:00:05;;;;;;;21.57;19.47;;;;;;;;;;5071264;28;20419;-74
2020/12/31 09:02:31;;;;;;;20.17;18.20;;;;;;;;;;5070888;28;20795;-74
2020/12/31 09:05:09;;;;;;;20.55;18.55;;;;;;;;;;5071150;28;20371;-74
2020/12/31 09:07:35;;;;;;;20.00;18.02;;;;;;;;;;5070926;28;20742;-74
2020/12/31 09:10:14;;;;;;;19.60;17.70;;;;;;;;;;5071035;28;20379;-74
2020/12/31 09:12:40;;;;;;;20.10;18.17;;;2.20;99.90;;;;;;5070876;28;20425;-74
2020/12/31 09:15:06;;;;;;;20.07;18.07;;;;;;;;;;5070723;28;20411;-74
2020/12/31 09:17:33;;;;;;;19.75;17.75;;;;;;;;;;5059847;28;20381;-74
2020/12/31 09:19:59;;;;;;;18.73;16.77;;;;;;;;;;5041391;28;20421;-74
2020/12/31 09:22:25;;;;;;;19.08;17.17;;;;;;;;;;5047304;28;20383;-74
2020/12/31 09:24:52;;;;;;;18.42;16.63;;;2.80;99.90;;;;;;5050092;28;20378;-74
2020/12/31 09:27:22;;;;;;;17.77;16.05;;;;;;;;;;5050608;28;20439;-73
2020/12/31 09:29:55;;;;;;;17.75;16.00;;;;;;;;;;5050237;28;20397;-74
2020/12/31 09:32:21;;;;;;;16.70;15.00;;;;;;;;;;5046140;28;20389;-73
2020/12/31 09:34:47;;;;;;;17.15;15.43;;;;;;;;;;5050526;28;20757;-72
2020/12/31 09:37:15;;;;;;;15.52;13.93;;;;;;;;;;5049005;28;20402;-72
2020/12/31 09:39:41;;;;;;;16.67;15.07;;;;;;;;;;5050422;28;20401;-72
2020/12/31 09:42:07;;;;;;;15.90;14.30;;;;;;;;;;5043015;28;20408;-72
2020/12/31 09:44:33;;;;;;;16.05;14.48;;;2.80;99.90;;;;;;5049939;28;20381;-72
2020/12/31 09:46:59;;;;;;;15.50;14.00;;;;;;;;;;5049821;28;20472;-72
2020/12/31 09:49:24;;;;;;;16.38;14.68;;;2.60;99.90;;;;;;5050206;28;20479;-73
2020/12/31 09:51:50;;;;;;;15.20;13.67;;;;;;;;;;5050142;28;20394;-73
2020/12/31 09:54:16;;;;;;;15.05;13.55;;;;;;;;;;5046527;28;21225;-73
2020/12/31 09:56:42;;;;;;;15.75;14.15;;;2.20;99.90;;;;;;5049285;28;20954;-74
2020/12/31 09:59:08;;;;;;;15.53;13.93;;;;;;;;;;5048400;28;20427;-72
2020/12/31 10:01:34;;;;;;;14.05;12.63;;;;;;;;;;5048583;28;20381;-74
2020/12/31 10:04:00;;;;;;;14.20;12.80;;;;;;;;;;5049951;28;20983;-73
2020/12/31 10:06:26;;;;;;;14.90;13.40;;;;;;;;;;5049918;28;20464;-72
2020/12/31 10:08:52;;;;;;;14.67;13.17;;;;;;;;;;5049813;28;20381;-73
2020/12/31 10:11:19;;;;;;;14.43;13.03;;;;;;;;;;5049802;28;20377;-73
2020/12/31 10:13:45;;;;;;;15.02;13.45;;;;;;;;;;5049732;28;20397;-73
2020/12/31 10:16:11;;;;;;;13.98;12.60;;;;;;;;;;5051752;28;20810;-73
2020/12/31 10:18:37;;;;;;;13.77;12.38;;;;;;;;;;5051863;28;20386;-74
2020/12/31 10:21:03;;;;;;;14.45;13.05;;;;;;;;;;5051787;28;20405;-74
2020/12/31 10:23:29;;;;;;;14.93;13.52;;;;;;;;;;5051609;28;20378;-72
2020/12/31 10:25:55;;;;;;;14.13;12.73;;;2.00;99.90;;;;;;5051865;28;20456;-72
2020/12/31 10:28:21;;;;;;;14.10;12.68;;;;;;;;;;5046283;28;20457;-73
2020/12/31 10:30:48;;;;;;;14.25;12.85;;;2.20;99.90;;;;;;5047118;28;20397;-72
2020/12/31 10:33:15;;;;;;;13.98;12.57;;;;;;;;;;5049586;28;20902;-73
2020/12/31 10:35:41;;;;;;;14.93;13.43;;;;;;;;;;5044378;28;20405;-72
2020/12/31 10:38:07;;;;;;;14.70;13.20;;;;;;;;;;5049777;28;20393;-72
2020/12/31 10:40:33;;;;;;;14.55;13.00;;;;;;;;;;5048103;28;20413;-72
2020/12/31 10:42:59;;;;;;;15.13;13.52;;;;;;;;;;5046903;28;20449;-73
2020/12/31 10:45:25;;;;;;;14.85;13.35;;;;;;;;;;5039157;28;20885;-73
2020/12/31 10:47:51;;;;;;;14.40;13.05;;;;;;;;;;5047060;28;20399;-74
2020/12/31 10:50:17;;;;;;;13.93;12.52;;;;;;;;;;5043045;28;20472;-72
2020/12/31 10:52:43;;;;;;;14.55;13.10;;;;;;;;;;5047850;28;21108;-71
2020/12/31 10:55:09;;;;;;;13.67;12.30;;;;;;;;;;5044521;28;20481;-72
2020/12/31 10:57:35;;;;;;;14.35;12.95;;;3.00;99.90;;;;;;5038384;28;20398;-72
2020/12/31 11:00:01;;;;;;;14.63;13.13;;;;;;;;;;5043484;28;20420;-72
2020/12/31 11:02:27;;;;;;;14.40;13.10;;;;;;;;;;5049221;28;20470;-74
2020/12/31 11:04:53;;;;;;;15.60;14.05;;;;;;;;;;5063613;28;20378;-74
2020/12/31 11:07:19;;;;;;;16.47;14.87;;;;;;;;;;5057347;28;21058;-74
2020/12/31 11:09:45;;;;;;;14.93;13.52;;;;;;;;;;5062502;28;20812;-74
2020/12/31 11:12:10;;;;;;;15.27;13.77;;;3.50;99.90;;;;;;5061787;28;20903;-73
2020/12/31 11:14:36;;;;;;;13.17;11.87;;;;;;;;;;5056031;28;20405;-72
2020/12/31 11:17:02;;;;;;;12.70;11.40;;;;;;;;;;5059859;28;20387;-72
2020/12/31 11:19:28;;;;;;;12.00;10.88;;;;;;;;;;5062203;28;20419;-72
2020/12/31 11:21:53;;;;;;;12.50;11.20;;;3.70;99.90;;;;;;5060207;28;20404;-72
2020/12/31 11:24:19;;;;;;;14.80;12.93;;;3.70;99.90;;;;;;5061886;28;20387;-72
2020/12/31 11:26:45;;;;;;;11.80;10.67;;;;;;;;;;5060053;28;20442;-72
2020/12/31 11:29:11;;;;;;;12.07;10.88;;;2.90;99.90;;;;;;5062199;28;20391;-73
2020/12/31 11:31:37;;;;;;;11.85;10.65;;;3.50;99.90;;;;;;5059308;28;20725;-74
2020/12/31 11:34:03;;;;;;;11.60;10.50;;;;;;;;;;5060227;28;20390;-74
2020/12/31 11:36:29;;;;;;;11.15;10.02;;;;;;;;;;5058869;28;20883;-74
2020/12/31 11:38:56;;;;;;;10.95;9.85;;;2.80;99.90;;;;;;5066206;28;20387;-74
2020/12/31 11:41:22;;;;;;;12.43;11.10;;;2.90;99.90;;;;;;5058250;28;20405;-74
2020/12/31 11:43:49;;;;;;;10.73;9.73;;;;;;;;;;5064612;28;20442;-73
2020/12/31 11:46:15;;;;;;;13.32;11.93;;;;;;;;;;5058294;28;20381;-74
2020/12/31 11:48:41;;;;;;;13.82;12.02;;;;;;;;;;5063390;28;20380;-73
2020/12/31 11:51:10;;;;;;;15.10;12.98;;;3.70;99.90;;;;;;5043854;28;20390;-73
2020/12/31 11:53:36;;;;;;;15.80;13.27;;;;;;;;;;5039526;28;20403;-74
2020/12/31 11:56:03;;;;;;;20.40;16.80;;;;;;;;;;5047293;28;20859;-73
2020/12/31 11:58:30;;;;;;;18.42;16.08;;;;;;;;;;5049982;28;20385;-73
2020/12/31 12:00:56;;;;;;;20.92;17.00;;;2.90;99.90;;;;;;5049669;28;20409;-74
2020/12/31 12:03:23;;;;;;;15.60;13.57;;;3.60;99.90;;;;;;5055740;28;20429;-74
2020/12/31 12:05:50;;;;;;;14.38;12.40;;;;;;;;;;5059626;28;20476;-73
2020/12/31 12:08:16;;;;;;;10.85;9.75;;;;;;;;;;5046069;28;20389;-73
2020/12/31 12:10:42;;;;;;;11.82;9.88;;;;;;;;;;5049655;28;20408;-74
2020/12/31 12:13:08;;;;;;;15.82;13.32;;;;;;;;;;5046177;28;20767;-73
2020/12/31 12:15:34;;;;;;;16.67;13.90;;;;;;;;;;5049615;28;20393;-74
2020/12/31 12:17:59;;;;;;;11.93;10.73;;;;;;;;;;5043653;28;20397;-74
2020/12/31 12:20:25;;;;;;;10.82;9.73;;;;;;;;;;5049778;28;20619;-73
2020/12/31 12:22:51;;;;;;;16.50;14.37;;;3.80;99.90;;;;;;5051132;28;20786;-73
2020/12/31 12:25:17;;;;;;;10.70;9.63;;;3.30;99.90;;;;;;5060292;28;20471;-73
2020/12/31 12:27:43;;;;;;;9.60;8.60;;;;;;;;;;5063659;28;20415;-74
2020/12/31 12:30:10;;;;;;;7.82;7.03;;;4.30;99.90;;;;;;5061642;28;20668;-74
2020/12/31 12:32:40;;;;;;;9.50;7.82;;;3.40;99.90;;;;;;5047433;28;20912;-73
2020/12/31 12:35:07;;;;;;;6.85;6.05;;;3.50;99.90;;;;;;5046554;28;21456;-75
2020/12/31 12:37:33;;;;;;;8.05;6.18;;;;;;;;;;5041515;28;20395;-73
2020/12/31 12:39:59;;;;;;;7.13;6.43;;;4.00;99.90;;;;;;5042545;28;20402;-73
2020/12/31 12:42:29;;;;;;;7.03;6.33;;;4.20;99.90;;;;;;5046212;28;20740;-73
2020/12/31 12:44:58;;;;;;;5.90;5.30;;;;;;;;;;5048925;28;20415;-73
2020/12/31 12:47:24;;;;;;;8.43;7.07;;;;;;;;;;5059987;28;20387;-73
2020/12/31 12:49:50;;;;;;;6.47;5.82;;;;;;;;;;5058921;28;20387;-73
2020/12/31 12:52:16;;;;;;;5.43;4.93;;;;;;;;;;5058590;28;20398;-73
2020/12/31 12:54:42;;;;;;;7.90;5.70;;;;;;;;;;5057991;28;20420;-74
2020/12/31 12:57:08;;;;;;;6.68;6.07;;;;;;;;;;5063473;28;20377;-74
2020/12/31 12:59:34;;;;;;;5.78;5.18;;;3.90;99.90;;;;;;5059440;28;22346;-73
2020/12/31 13:01:59;;;;;;;6.40;5.70;;;4.00;99.90;;;;;;5066666;28;20760;-73
2020/12/31 13:04:25;;;;;;;8.27;6.40;;;3.80;99.90;;;;;;5066625;28;20402;-73
2020/12/31 13:06:51;;;;;;;5.28;4.78;;;;;;;;;;5063011;28;20517;-73
2020/12/31 13:09:20;;;;;;;6.25;4.97;;;4.10;99.90;;;;;;5064447;28;20436;-73
2020/12/31 13:11:45;;;;;;;5.90;4.85;;;;;;;;;;5063640;28;20376;-73
2020/12/31 13:14:12;;;;;;;6.20;5.07;;;4.20;99.90;;;;;;5062454;28;20376;-73
2020/12/31 13:16:38;;;;;;;6.47;5.60;;;4.00;99.90;;;;;;5064002;28;20746;-73
2020/12/31 13:19:04;;;;;;;6.65;5.95;;;;;;;;;;5064275;28;20407;-73
2020/12/31 13:21:30;;;;;;;6.03;5.43;;;4.20;99.90;;;;;;5057404;28;20405;-73
2020/12/31 13:23:56;;;;;;;6.07;5.47;;;;;;;;;;5063063;28;20398;-74
2020/12/31 13:26:21;;;;;;;5.68;5.07;;;;;;;;;;5064293;28;20500;-74
2020/12/31 13:28:47;;;;;;;5.83;4.87;;;4.00;99.90;;;;;;5061836;28;20411;-73
2020/12/31 13:31:13;;;;;;;7.00;6.30;;;;;;;;;;5067285;28;20440;-74
2020/12/31 13:33:38;;;;;;;9.50;7.65;;;4.20;99.90;;;;;;5060807;28;20389;-74
2020/12/31 13:36:04;;;;;;;13.63;7.88;;;4.30;99.90;;;;;;5066163;28;20421;-73
2020/12/31 13:38:30;;;;;;;10.43;7.63;;;;;;;;;;5066801;28;20392;-74
2020/12/31 13:40:56;;;;;;;10.02;6.60;;;4.40;99.90;;;;;;5061721;28;20975;-73
2020/12/31 13:43:22;;;;;;;15.98;9.40;;;;;;;;;;5064912;28;20442;-73
2020/12/31 13:45:48;;;;;;;14.23;9.35;;;;;;;;;;5051730;28;20446;-73
2020/12/31 13:48:14;;;;;;;13.90;9.45;;;;;;;;;;5052368;28;20381;-73
2020/12/31 13:50:40;;;;;;;15.40;9.73;;;4.90;99.90;;;;;;5048859;28;20397;-73